Current Weather Conditions: station 46183

sailwx.info

Wind from 090 at 19 knots gusting 23

Wave height 1.3 meters (4 feet), 5 second period

Air temperature 8.1° C
Water temperature 9.3° C

Last reported at 2015-Mar-30 12:00 UTC.
Time now 2015-Mar-30 14:14 UTC

Location: N 53°36' W 131°06'.
View on Google Maps.

See reports from other nearby stations

  
Tides and Currents Weather Stations Pressure Air Temp Water Temp Dewpoint Dewpoint Depression Visibility Wind Speed Wind Dir Waves Ship Positions
date/time (UTC)wind fromknots sea level pressurealtimeterstation pressurevisibilityair tempwater tempwave heightnotes
2015-Mar-30 12:00 090 19 gusting 23 8.1 9.3 1.3
2015-Mar-30 11:00 120 19 gusting 23 8.5 9.3 1.2
2015-Mar-30 10:00 100 13 gusting 15 9.1 9.3 1.2
2015-Mar-30 09:00 110 15 gusting 19 9.3 9.2 1.2
2015-Mar-30 08:00 110 17 gusting 19 8.9 9.3 1.2
2015-Mar-30 07:00 120 15 gusting 19 9.0 9.3 1.2
2015-Mar-30 06:00 140 15 gusting 19 9.1 9.3 1.2
2015-Mar-30 05:00 150 15 gusting 17 9.2 9.3 1.2
2015-Mar-30 04:00 160 17 gusting 19 9.2 9.3 1.1
2015-Mar-30 03:00 150 13 gusting 17 9.2 9.4 1.2
2015-Mar-30 02:00 150 13 gusting 17 9.5 9.4 1.1
2015-Mar-30 01:00 160 11 gusting 13 9.4 9.5 1.1
2015-Mar-30 00:00 160 13 gusting 15 9.4 9.5 1.1
2015-Mar-29 23:00 170 11 gusting 13 8.9 9.4 1.0
2015-Mar-29 22:00 180 9 gusting 11 8.6 9.4 1.1
2015-Mar-29 21:00 190 15 gusting 17 9.1 9.3 1.1
2015-Mar-29 20:00 190 15 gusting 17 9.1 9.3 1.1
2015-Mar-29 19:00 210 11 gusting 15 8.8 9.3 1.2
2015-Mar-29 18:00 200 13 gusting 15 9.2 9.2 1.3
2015-Mar-29 17:00 210 15 gusting 19 9.3 9.2 1.3
2015-Mar-29 15:00 190 15 gusting 19 8.9 9.2 1.5
2015-Mar-29 14:00 170 15 gusting 19 8.8 9.2 1.7
2015-Mar-29 13:00 170 17 gusting 23 8.9 9.3 1.8
2015-Mar-29 12:00 160 19 gusting 23 8.7 9.3 1.9
2015-Mar-29 11:00 160 21 gusting 25 8.6 9.2 1.9
2015-Mar-29 10:00 160 19 gusting 25 9.2 9.3 1.9
2015-Mar-29 09:00 160 19 gusting 23 9.4 9.3 2.0
2015-Mar-29 08:00 140 13 gusting 17 9.3 9.3 2.1
2015-Mar-29 07:00 170 19 gusting 23 9.7 9.3 2.4
2015-Mar-29 06:00 180 17 gusting 21 9.6 9.3 2.4
2015-Mar-29 05:00 180 19 gusting 23 9.7 9.3 2.6
2015-Mar-29 04:00 180 13 gusting 17 9.6 9.3 3.0
2015-Mar-29 03:00
2015-Mar-29 02:00 180 17 gusting 21 10.2 9.3 3.3
2015-Mar-29 01:00 180 15 gusting 19 10.2 9.3 3.5
2015-Mar-29 00:00 170 17 gusting 21 9.9 9.3 4.5
2015-Mar-28 23:00 160 27 gusting 34 9.4 9.3 4.7
2015-Mar-28 22:00 150 33 gusting 42 9.1 9.2 4.2
2015-Mar-28 21:00 140 33 8.7 9.3 4.2
2015-Mar-28 20:00 140 33 gusting 42 8.5 9.3 3.6
2015-Mar-28 19:00 140 33 gusting 44 8.4 9.3 3.1
2015-Mar-28 18:00 140 33 gusting 42 8.8 9.3 2.5
2015-Mar-28 17:00 140 29 gusting 34 9.1 9.3 2.1
2015-Mar-28 16:00 140 27 gusting 34 9.1 9.3 1.5
2015-Mar-28 15:00 150 25 gusting 31 8.9 9.3 1.2
2015-Mar-28 14:00 150 23 gusting 27 8.7 9.2 0.9